createdAt,value
2023-05-05T00:01:55.560Z,19.70
2023-05-05T00:04:24.347Z,20.77
2023-05-05T00:09:18.473Z,18.80
2023-05-05T00:11:46.169Z,24.15
2023-05-05T00:14:13.364Z,21.05
2023-05-05T00:16:40.642Z,21.30
2023-05-05T00:19:07.583Z,20.27
2023-05-05T00:21:36.240Z,19.63
2023-05-05T00:24:03.579Z,21.73
2023-05-05T00:26:31.043Z,20.90
2023-05-05T00:28:58.046Z,18.05
2023-05-05T00:31:25.386Z,23.17
2023-05-05T00:33:52.601Z,22.75
2023-05-05T00:36:19.788Z,22.83
2023-05-05T00:38:48.089Z,22.98
2023-05-05T00:41:15.412Z,22.58
2023-05-05T00:43:42.442Z,20.48
2023-05-05T00:46:27.912Z,21.27
2023-05-05T00:48:55.274Z,19.70
2023-05-05T00:51:22.973Z,17.55
2023-05-05T00:53:51.533Z,22.52
2023-05-05T00:56:20.935Z,20.85
2023-05-05T00:58:49.026Z,20.92
2023-05-05T01:01:17.477Z,19.35
2023-05-05T01:03:44.937Z,23.45
2023-05-05T01:06:28.070Z,20.38
2023-05-05T01:09:05.169Z,23.67
2023-05-05T01:11:42.199Z,18.42
2023-05-05T01:14:14.310Z,21.10
2023-05-05T01:16:53.540Z,20.77
2023-05-05T01:19:43.371Z,20.45
2023-05-05T01:22:15.050Z,22.40
2023-05-05T01:24:59.780Z,19.48
2023-05-05T01:27:49.988Z,21.73
2023-05-05T01:30:41.698Z,16.88
2023-05-05T01:33:14.453Z,18.08
2023-05-05T01:35:45.966Z,20.10
2023-05-05T01:38:17.108Z,19.90
2023-05-05T01:40:48.256Z,22.90
2023-05-05T01:43:19.559Z,22.88
2023-05-05T01:45:48.094Z,22.90
2023-05-05T01:48:19.665Z,23.65
2023-05-05T01:50:48.359Z,22.20
2023-05-05T01:58:14.959Z,23.67
2023-05-05T02:00:42.878Z,21.80
2023-05-05T02:03:13.509Z,23.63
2023-05-05T02:05:43.642Z,18.38
2023-05-05T02:08:12.687Z,22.38
2023-05-05T02:10:43.493Z,23.95
2023-05-05T02:13:13.000Z,21.45
2023-05-05T02:15:42.402Z,21.08
2023-05-05T02:18:10.054Z,21.30
2023-05-05T02:20:38.491Z,26.13
2023-05-05T02:23:08.506Z,22.63
2023-05-05T02:25:40.106Z,25.45
2023-05-05T02:28:13.230Z,21.48
2023-05-05T02:30:41.759Z,26.65
2023-05-05T02:33:11.787Z,26.80
2023-05-05T02:35:40.944Z,22.80
2023-05-05T02:38:13.322Z,26.58
2023-05-05T02:40:44.331Z,19.02
2023-05-05T02:43:15.906Z,27.13
2023-05-05T02:45:43.023Z,20.08
2023-05-05T02:48:13.056Z,26.10
2023-05-05T02:50:40.298Z,23.70
2023-05-05T02:53:09.497Z,19.00
2023-05-05T02:55:42.996Z,22.40
2023-05-05T02:58:20.784Z,18.05
2023-05-05T03:00:55.708Z,21.42
2023-05-05T03:03:29.588Z,23.33
2023-05-05T03:06:03.983Z,19.77
2023-05-05T03:08:37.119Z,19.75
2023-05-05T03:11:06.525Z,23.42
2023-05-05T03:13:36.721Z,22.88
2023-05-05T03:16:07.682Z,23.38
2023-05-05T03:18:37.795Z,22.20
2023-05-05T03:21:08.666Z,21.63
2023-05-05T03:23:37.898Z,22.90
2023-05-05T03:28:32.175Z,20.83
2023-05-05T03:30:59.155Z,21.38
2023-05-05T03:33:26.610Z,23.40
2023-05-05T03:35:53.548Z,24.15
2023-05-05T03:38:21.000Z,20.42
2023-05-05T03:40:49.412Z,24.48
2023-05-05T03:43:16.958Z,23.05
2023-05-05T03:45:43.850Z,20.80
2023-05-05T03:48:13.802Z,28.17
2023-05-05T03:50:40.654Z,30.42
2023-05-05T03:53:07.815Z,33.67
2023-05-05T03:55:35.247Z,29.63
2023-05-05T03:58:04.004Z,30.83
2023-05-05T04:00:30.974Z,31.67
2023-05-05T04:02:58.279Z,26.50
2023-05-05T04:05:26.293Z,24.30
2023-05-05T04:07:53.558Z,25.25
2023-05-05T04:10:21.459Z,18.60
2023-05-05T04:12:48.937Z,19.05
2023-05-05T04:15:17.343Z,24.48
2023-05-05T04:17:44.685Z,19.55
2023-05-05T04:20:12.190Z,20.02
2023-05-05T04:22:39.636Z,23.23
2023-05-05T04:25:07.367Z,24.52
2023-05-05T04:27:34.806Z,20.42
2023-05-05T04:30:01.875Z,21.15
2023-05-05T04:32:30.528Z,26.83
2023-05-05T04:34:57.509Z,27.05
2023-05-05T04:37:28.445Z,25.90
2023-05-05T04:39:55.473Z,19.38
2023-05-05T04:42:22.961Z,19.83
2023-05-05T04:44:49.880Z,20.10
2023-05-05T04:47:17.119Z,17.65
2023-05-05T04:49:45.548Z,24.88
2023-05-05T04:52:13.885Z,17.23
2023-05-05T04:54:40.966Z,20.30
2023-05-05T04:57:08.156Z,22.55
2023-05-05T04:59:35.298Z,26.50
2023-05-05T05:02:02.999Z,17.75
2023-05-05T05:04:30.130Z,18.25
2023-05-05T05:06:59.368Z,21.05
2023-05-05T05:09:26.428Z,22.55
2023-05-05T05:11:53.619Z,20.95
2023-05-05T05:14:20.723Z,24.33
2023-05-05T05:16:52.155Z,20.30
2023-05-05T05:19:20.134Z,20.73
2023-05-05T05:21:47.512Z,17.00
2023-05-05T05:24:16.342Z,21.48
2023-05-05T05:26:43.547Z,20.45
2023-05-05T05:29:10.564Z,21.90
2023-05-05T05:31:37.850Z,18.75
2023-05-05T05:34:04.839Z,16.10
2023-05-05T05:36:32.134Z,16.23
2023-05-05T05:38:59.128Z,20.10
2023-05-05T05:41:27.884Z,18.52
2023-05-05T05:43:54.984Z,27.33
2023-05-05T05:46:22.284Z,17.02
2023-05-05T05:48:49.318Z,20.60
2023-05-05T05:51:16.554Z,23.80
2023-05-05T05:53:43.501Z,19.70
2023-05-05T05:56:11.407Z,16.83
2023-05-05T05:58:40.615Z,30.75
2023-05-05T06:01:07.853Z,15.77
2023-05-05T06:03:36.188Z,15.52
2023-05-05T06:06:03.770Z,21.52
2023-05-05T06:08:30.980Z,18.40
2023-05-05T06:10:59.206Z,13.77
2023-05-05T06:13:26.448Z,16.43
2023-05-05T06:15:55.251Z,15.75
2023-05-05T06:18:22.324Z,14.57
2023-05-05T06:20:51.005Z,15.07
2023-05-05T06:25:46.909Z,14.32
2023-05-05T06:28:14.096Z,17.98
2023-05-05T06:30:41.593Z,16.70
2023-05-05T06:33:10.107Z,18.45
2023-05-05T06:35:37.406Z,13.43
2023-05-05T06:38:04.536Z,19.27
2023-05-05T06:40:31.925Z,14.02
2023-05-05T06:42:59.283Z,15.10
2023-05-05T06:45:26.894Z,20.25
2023-05-05T06:47:53.882Z,17.35
2023-05-05T06:50:22.516Z,14.63
2023-05-05T06:52:49.711Z,18.33
2023-05-05T06:55:17.038Z,15.65
2023-05-05T06:57:43.997Z,12.45
2023-05-05T07:00:13.927Z,11.27
2023-05-05T07:02:41.724Z,16.05
2023-05-05T07:05:09.514Z,20.52
2023-05-05T07:07:38.861Z,24.58
2023-05-05T07:10:07.689Z,22.45
2023-05-05T07:15:12.195Z,13.38
2023-05-05T07:17:46.437Z,19.65
2023-05-05T07:20:13.929Z,15.63
2023-05-05T07:22:42.397Z,17.90
2023-05-05T07:27:37.427Z,17.13
2023-05-05T07:30:10.166Z,12.63
2023-05-05T07:32:40.027Z,16.33
2023-05-05T07:35:07.896Z,20.02
2023-05-05T07:37:34.820Z,19.30
2023-05-05T07:40:04.252Z,15.43
2023-05-05T07:42:31.252Z,14.15
2023-05-05T07:44:58.539Z,13.23
2023-05-05T07:47:25.916Z,14.20
2023-05-05T07:49:53.985Z,17.52
2023-05-05T07:52:30.065Z,13.43
2023-05-05T07:55:06.804Z,11.13
2023-05-05T07:57:33.866Z,13.10
2023-05-05T08:00:01.189Z,11.10
2023-05-05T08:02:28.553Z,9.98
2023-05-05T08:04:55.907Z,13.27
2023-05-05T08:07:22.992Z,18.75
2023-05-05T08:09:50.263Z,16.98
2023-05-05T08:12:19.475Z,14.50
2023-05-05T08:14:46.489Z,13.88
2023-05-05T08:17:13.516Z,17.52
2023-05-05T08:19:40.787Z,12.23
2023-05-05T08:22:08.125Z,14.90
2023-05-05T08:24:35.410Z,9.65
2023-05-05T08:27:02.707Z,14.00
2023-05-05T08:29:31.406Z,12.50
2023-05-05T08:31:58.468Z,10.10
2023-05-05T08:34:26.004Z,14.38
2023-05-05T08:36:53.023Z,12.05
2023-05-05T08:39:20.331Z,10.20
2023-05-05T08:41:47.349Z,11.95
2023-05-05T08:44:15.007Z,14.68
2023-05-05T08:46:43.658Z,10.73
2023-05-05T08:49:16.163Z,14.00
2023-05-05T08:51:45.433Z,15.18
2023-05-05T08:54:17.817Z,20.10
2023-05-05T08:56:46.980Z,15.18
2023-05-05T08:59:15.988Z,10.02
2023-05-05T09:01:45.053Z,13.13
2023-05-05T09:04:12.591Z,15.65
2023-05-05T09:06:40.486Z,14.27
2023-05-05T09:09:09.221Z,13.80
2023-05-05T09:11:37.676Z,11.65
2023-05-05T09:14:04.980Z,15.77
2023-05-05T09:16:32.268Z,11.25
2023-05-05T09:19:04.741Z,13.35
2023-05-05T09:21:32.395Z,12.65
2023-05-05T09:24:09.077Z,19.33
2023-05-05T09:26:38.988Z,20.55
2023-05-05T09:29:06.742Z,13.18
2023-05-05T09:31:35.269Z,11.10
2023-05-05T09:34:14.115Z,15.02
2023-05-05T09:36:47.418Z,11.60
2023-05-05T09:39:16.661Z,8.52
2023-05-05T09:41:44.512Z,9.82
2023-05-05T09:44:12.631Z,9.73
2023-05-05T09:46:49.977Z,12.75
2023-05-05T09:49:25.267Z,7.80
2023-05-05T09:51:53.425Z,10.00
2023-05-05T09:54:24.951Z,7.70
2023-05-05T09:56:52.386Z,8.82
2023-05-05T09:59:20.584Z,8.57
2023-05-05T10:01:48.802Z,6.30
2023-05-05T10:04:25.336Z,10.23
2023-05-05T10:06:52.308Z,10.80
2023-05-05T10:09:21.007Z,7.65
2023-05-05T10:11:48.671Z,7.20
2023-05-05T10:14:20.592Z,4.00
2023-05-05T10:16:50.641Z,7.38
2023-05-05T10:19:19.492Z,4.75
2023-05-05T10:21:50.625Z,6.40
2023-05-05T10:24:26.031Z,10.15
2023-05-05T10:26:54.396Z,4.60
2023-05-05T10:32:12.036Z,9.40
2023-05-05T10:34:53.487Z,8.10
2023-05-05T10:37:22.903Z,8.43
2023-05-05T10:39:52.685Z,10.68
2023-05-05T10:42:20.152Z,9.20
2023-05-05T10:44:49.153Z,10.87
2023-05-05T10:47:16.842Z,6.80
2023-05-05T10:49:49.409Z,5.72
2023-05-05T10:52:26.143Z,9.02
2023-05-05T10:55:01.482Z,4.55
2023-05-05T10:57:29.759Z,9.90
2023-05-05T11:02:25.874Z,6.20
2023-05-05T11:05:07.264Z,10.40
2023-05-05T11:07:35.953Z,6.32
2023-05-05T11:10:05.201Z,4.55
2023-05-05T11:12:34.636Z,7.78
2023-05-05T11:15:37.597Z,6.20
2023-05-05T11:18:07.783Z,4.72
2023-05-05T11:21:03.683Z,3.88
2023-05-05T11:23:32.172Z,5.53
2023-05-05T11:26:00.048Z,4.43
2023-05-05T11:28:30.836Z,3.60
2023-05-05T11:31:18.010Z,4.00
2023-05-05T11:33:45.301Z,5.68
2023-05-05T11:36:13.720Z,4.38
2023-05-05T11:39:00.478Z,5.80
2023-05-05T11:41:41.769Z,5.15
2023-05-05T11:44:10.308Z,3.50
2023-05-05T11:46:37.872Z,3.75
2023-05-05T11:49:04.923Z,4.60
2023-05-05T11:51:32.409Z,7.30
2023-05-05T11:54:01.046Z,3.35
2023-05-05T11:56:29.267Z,5.82
2023-05-05T11:59:08.664Z,7.25
2023-05-05T12:01:39.244Z,4.47
2023-05-05T12:04:07.011Z,3.13
2023-05-05T12:06:34.415Z,5.65
2023-05-05T12:09:04.029Z,3.97
2023-05-05T12:11:31.572Z,3.30
2023-05-05T12:14:09.278Z,3.60
2023-05-05T12:16:36.821Z,5.55
2023-05-05T12:19:05.872Z,4.50
2023-05-05T12:21:33.509Z,7.38
2023-05-05T12:24:02.131Z,5.63
2023-05-05T12:26:30.928Z,4.40
2023-05-05T12:31:35.659Z,3.53
2023-05-05T12:34:03.598Z,5.55
2023-05-05T12:36:32.879Z,10.18
2023-05-05T12:38:59.863Z,4.97
2023-05-05T12:41:29.989Z,5.40
2023-05-05T12:43:58.276Z,4.07
2023-05-05T12:46:26.598Z,4.82
2023-05-05T12:49:01.613Z,3.83
2023-05-05T12:51:28.932Z,4.43
2023-05-05T12:54:03.493Z,4.70
2023-05-05T12:56:36.762Z,4.75
2023-05-05T12:59:05.408Z,5.20
2023-05-05T13:01:33.417Z,4.35
2023-05-05T13:04:10.923Z,3.60
2023-05-05T13:06:38.837Z,3.88
2023-05-05T13:09:07.090Z,3.67
2023-05-05T13:11:39.404Z,4.03
2023-05-05T13:14:07.633Z,3.85
2023-05-05T13:19:01.799Z,2.75
2023-05-05T13:21:29.047Z,2.80
2023-05-05T13:24:08.126Z,2.90
2023-05-05T13:26:41.168Z,7.47
2023-05-05T13:29:08.144Z,6.30
2023-05-05T13:31:35.649Z,3.28
2023-05-05T13:34:02.876Z,2.40
2023-05-05T13:36:30.126Z,3.70
2023-05-05T13:38:57.111Z,5.82
2023-05-05T13:41:24.575Z,2.40
2023-05-05T13:43:53.227Z,2.00
2023-05-05T13:46:20.554Z,4.00
2023-05-05T13:48:48.024Z,3.10
2023-05-05T13:51:16.378Z,3.10
2023-05-05T13:53:46.558Z,4.88
2023-05-05T13:56:14.452Z,3.88
2023-05-05T13:58:42.482Z,2.95
2023-05-05T14:01:11.777Z,4.55
2023-05-05T14:03:39.759Z,6.63
2023-05-05T14:06:09.106Z,5.57
2023-05-05T14:08:36.377Z,2.63
2023-05-05T14:11:03.758Z,3.80
2023-05-05T14:13:31.594Z,8.63
2023-05-05T14:15:58.760Z,7.72
2023-05-05T14:18:28.106Z,7.63
2023-05-05T14:20:55.557Z,2.65
2023-05-05T14:23:22.610Z,2.45
2023-05-05T14:25:49.868Z,6.03
2023-05-05T14:28:17.149Z,2.70
2023-05-05T14:30:44.494Z,11.73
2023-05-05T14:33:11.557Z,7.03
2023-05-05T14:35:40.386Z,3.88
2023-05-05T14:40:34.693Z,4.70
2023-05-05T14:43:03.377Z,4.30
2023-05-05T14:45:31.828Z,3.58
2023-05-05T14:47:58.845Z,3.92
2023-05-05T14:50:26.334Z,3.72
2023-05-05T14:52:54.619Z,5.78
2023-05-05T14:55:21.958Z,5.65
2023-05-05T14:57:48.867Z,4.32
2023-05-05T15:00:16.964Z,4.22
2023-05-05T15:02:44.230Z,5.32
2023-05-05T15:05:11.796Z,15.73
2023-05-05T15:07:40.115Z,5.28
2023-05-05T15:12:36.541Z,7.47
2023-05-05T15:15:04.417Z,4.32
2023-05-05T15:17:31.866Z,6.18
2023-05-05T15:19:59.370Z,5.78
2023-05-05T15:22:26.405Z,4.10
2023-05-05T15:24:53.568Z,6.07
2023-05-05T15:27:21.912Z,4.97
2023-05-05T15:29:49.153Z,4.53
2023-05-05T15:32:16.456Z,5.97
2023-05-05T15:34:45.464Z,5.17
2023-05-05T15:37:12.407Z,4.50
2023-05-05T15:39:39.705Z,4.38
2023-05-05T15:42:06.857Z,5.10
2023-05-05T15:44:35.670Z,7.32
2023-05-05T15:47:02.576Z,3.83
2023-05-05T15:49:29.972Z,4.43
2023-05-05T15:51:57.074Z,4.10
2023-05-05T15:54:24.278Z,8.57
2023-05-05T15:56:53.747Z,3.83
2023-05-05T15:59:21.027Z,5.47
2023-05-05T16:01:49.473Z,7.35
2023-05-05T16:04:16.864Z,4.03
2023-05-05T16:06:43.894Z,4.10
2023-05-05T16:09:11.383Z,4.05
2023-05-05T16:11:39.570Z,5.70
2023-05-05T16:14:06.844Z,3.88
2023-05-05T16:16:34.012Z,5.30
2023-05-05T16:19:02.671Z,10.95
2023-05-05T16:21:29.607Z,8.68
2023-05-05T16:23:57.048Z,4.93
2023-05-05T16:26:23.993Z,6.63
2023-05-05T16:28:54.296Z,4.45
2023-05-05T16:31:21.482Z,3.60
2023-05-05T16:33:48.871Z,8.57
2023-05-05T16:36:17.151Z,6.15
2023-05-05T16:41:11.760Z,4.38
2023-05-05T16:43:39.201Z,7.93
2023-05-05T16:46:06.598Z,9.55
2023-05-05T16:48:34.166Z,7.53
2023-05-05T16:51:01.155Z,6.88
2023-05-05T16:53:32.877Z,8.52
2023-05-05T16:56:00.454Z,5.57
2023-05-05T16:58:30.521Z,5.35
2023-05-05T17:01:02.000Z,4.50
2023-05-05T17:03:31.488Z,5.13
2023-05-05T17:05:58.743Z,4.53
2023-05-05T17:08:30.994Z,5.78
2023-05-05T17:11:00.517Z,10.25
2023-05-05T17:13:27.878Z,6.15
2023-05-05T17:15:56.671Z,6.05
2023-05-05T17:18:25.942Z,6.43
2023-05-05T17:20:55.182Z,6.18
2023-05-05T17:23:22.413Z,9.10
2023-05-05T17:25:49.455Z,7.10
2023-05-05T17:28:18.078Z,13.85
2023-05-05T17:30:45.174Z,13.68
2023-05-05T17:33:19.167Z,13.48
2023-05-05T17:35:49.791Z,8.43
2023-05-05T17:38:17.715Z,6.80
2023-05-05T17:40:45.156Z,11.95
2023-05-05T17:43:12.634Z,7.07
2023-05-05T17:45:42.327Z,6.43
2023-05-05T17:48:09.702Z,15.15
2023-05-05T17:50:36.807Z,6.13
2023-05-05T17:53:04.943Z,6.20
2023-05-05T17:55:32.193Z,5.47
2023-05-05T17:57:59.492Z,4.32
2023-05-05T18:00:26.633Z,6.97
2023-05-05T18:02:55.399Z,8.68
2023-05-05T18:05:22.928Z,10.48
2023-05-05T18:07:50.374Z,10.38
2023-05-05T18:10:17.430Z,7.53
2023-05-05T18:12:45.149Z,23.38
2023-05-05T18:15:12.512Z,18.88
2023-05-05T18:17:40.442Z,18.63
2023-05-05T18:20:10.423Z,10.45
2023-05-05T18:22:38.033Z,13.60
2023-05-05T18:25:07.988Z,13.75
2023-05-05T18:27:36.151Z,14.73
2023-05-05T18:30:04.841Z,9.15
2023-05-05T18:32:32.432Z,15.02
2023-05-05T18:34:59.452Z,15.98
2023-05-05T18:37:28.236Z,16.25
2023-05-05T18:39:55.200Z,12.20
2023-05-05T18:42:23.600Z,19.35
2023-05-05T18:44:50.446Z,10.05
2023-05-05T18:47:17.594Z,12.32
2023-05-05T18:49:45.470Z,13.55
2023-05-05T18:52:13.501Z,9.48
2023-05-05T18:54:41.805Z,13.80
2023-05-05T18:57:09.469Z,13.20
2023-05-05T18:59:36.596Z,8.20
2023-05-05T19:02:04.025Z,9.23
2023-05-05T19:04:32.701Z,6.80
2023-05-05T19:07:00.293Z,12.05
2023-05-05T19:09:27.722Z,13.13
2023-05-05T19:11:56.405Z,13.48
2023-05-05T19:14:23.514Z,13.60
2023-05-05T19:16:51.156Z,9.93
2023-05-05T19:19:18.206Z,12.05
2023-05-05T19:21:45.525Z,11.55
2023-05-05T19:24:12.676Z,16.05
2023-05-05T19:26:40.218Z,10.98
2023-05-05T19:29:08.948Z,16.27
2023-05-05T19:31:36.833Z,12.82
2023-05-05T19:34:05.280Z,15.65
2023-05-05T19:39:01.682Z,16.63
2023-05-05T19:41:28.990Z,14.00
2023-05-05T19:43:56.267Z,14.75
2023-05-05T19:46:27.662Z,12.07
2023-05-05T19:48:54.835Z,16.85
2023-05-05T19:51:22.252Z,16.58
2023-05-05T19:53:50.222Z,16.80
2023-05-05T19:56:17.899Z,20.27
2023-05-05T19:58:56.193Z,16.15
2023-05-05T20:03:54.528Z,24.17
2023-05-05T20:06:22.624Z,17.92
2023-05-05T20:08:49.554Z,15.55
2023-05-05T20:11:17.495Z,22.20
2023-05-05T20:13:47.506Z,24.75
2023-05-05T20:16:15.154Z,19.77
2023-05-05T20:18:43.716Z,19.92
2023-05-05T20:21:11.134Z,15.90
2023-05-05T20:23:38.277Z,27.85
2023-05-05T20:26:05.730Z,21.20
2023-05-05T20:28:32.801Z,17.08
2023-05-05T20:31:03.381Z,17.52
2023-05-05T20:33:30.318Z,16.58
2023-05-05T20:36:01.117Z,23.35
2023-05-05T20:40:55.851Z,24.05
2023-05-05T20:43:24.234Z,22.70
2023-05-05T20:45:51.703Z,14.23
2023-05-05T20:48:19.123Z,14.82
2023-05-05T20:50:46.039Z,19.58
2023-05-05T20:53:20.908Z,30.60
2023-05-05T20:55:48.040Z,17.70
2023-05-05T20:58:15.402Z,18.00
2023-05-05T21:00:42.438Z,13.35
2023-05-05T21:03:09.904Z,23.52
2023-05-05T21:05:37.305Z,18.25
2023-05-05T21:08:05.728Z,18.67
2023-05-05T21:10:34.450Z,14.20
2023-05-05T21:13:02.558Z,19.45
2023-05-05T21:15:29.885Z,16.10
2023-05-05T21:17:57.423Z,17.40
2023-05-05T21:20:24.731Z,14.98
2023-05-05T21:22:51.982Z,18.10
2023-05-05T21:25:20.955Z,10.60
2023-05-05T21:27:49.926Z,15.52
2023-05-05T21:30:17.625Z,18.65
2023-05-05T21:32:45.676Z,21.42
2023-05-05T21:35:12.790Z,18.33
2023-05-05T21:37:40.700Z,15.80
2023-05-05T21:40:13.231Z,14.27
2023-05-05T21:42:41.249Z,18.70
2023-05-05T21:45:10.943Z,16.77
2023-05-05T21:47:38.539Z,15.15
2023-05-05T21:50:06.976Z,20.75
2023-05-05T21:55:01.562Z,19.38
2023-05-05T21:57:28.862Z,23.00
2023-05-05T21:59:55.926Z,16.30
2023-05-05T22:02:24.645Z,20.60
2023-05-05T22:07:19.167Z,21.33
2023-05-05T22:09:46.193Z,21.73
2023-05-05T22:12:13.727Z,15.82
2023-05-05T22:14:40.895Z,17.92
2023-05-05T22:17:08.207Z,15.88
2023-05-05T22:19:36.514Z,17.55
2023-05-05T22:22:03.966Z,22.67
2023-05-05T22:24:31.084Z,16.27
2023-05-05T22:26:58.601Z,19.92
2023-05-05T22:29:25.670Z,19.83
2023-05-05T22:31:53.117Z,19.38
2023-05-05T22:34:21.742Z,16.60
2023-05-05T22:36:50.331Z,21.05
2023-05-05T22:39:18.529Z,21.73
2023-05-05T22:41:46.238Z,24.20
2023-05-05T22:44:18.521Z,19.77
2023-05-05T22:46:45.888Z,19.10
2023-05-05T22:49:14.017Z,18.42
2023-05-05T22:51:41.377Z,22.58
2023-05-05T22:54:09.811Z,18.05
2023-05-05T22:56:39.767Z,20.52
2023-05-05T22:59:06.838Z,21.33
2023-05-05T23:01:34.728Z,21.45
2023-05-05T23:04:01.718Z,18.13
2023-05-05T23:06:29.662Z,21.45
2023-05-05T23:08:56.599Z,15.70
2023-05-05T23:11:26.126Z,24.90
2023-05-05T23:13:53.532Z,18.83
2023-05-05T23:16:20.846Z,27.33
2023-05-05T23:18:47.851Z,17.25
2023-05-05T23:21:14.950Z,15.05
2023-05-05T23:23:42.103Z,13.95
2023-05-05T23:26:13.574Z,13.60
2023-05-05T23:28:42.014Z,15.18
2023-05-05T23:31:09.253Z,11.98
2023-05-05T23:33:36.345Z,14.48
2023-05-05T23:36:04.505Z,10.68
2023-05-05T23:38:31.516Z,9.52
2023-05-05T23:40:58.912Z,11.18
2023-05-05T23:43:26.016Z,12.63
2023-05-05T23:45:54.578Z,12.65
2023-05-05T23:48:21.880Z,9.30
2023-05-05T23:50:49.482Z,12.82
2023-05-05T23:53:16.608Z,11.88
2023-05-05T23:55:43.906Z,10.43
2023-05-05T23:58:10.960Z,10.88
